Time;durP1;ratioP1;P1;durP2;ratioP2;P2;SDS_P1;SDS_P2;PMS_P1;PMS_P2;Temp;Humidity;BMP_temperature;BMP_pressure;BME280_temperature;BME280_humidity;BME280_pressure;Samples;Min_cycle;Max_cycle;Signal;HPM_P1;HPM_P2
2021/04/15 00:01:25;;;;;;;9.07;8.10;;;8.30;98.90;;;;;;5053602;28;20051;-75
2021/04/15 00:03:51;;;;;;;11.40;9.60;;;8.40;98.80;;;;;;5053744;28;20559;-75
2021/04/15 00:06:24;;;;;;;9.38;8.32;;;8.40;98.80;;;;;;5053310;28;20052;-75
2021/04/15 00:08:51;;;;;;;9.02;8.13;;;8.20;99.10;;;;;;5053413;28;20044;-76
2021/04/15 00:11:19;;;;;;;9.35;8.35;;;8.20;99.20;;;;;;5051916;28;20032;-76
2021/04/15 00:13:49;;;;;;;8.13;7.32;;;8.30;99.20;;;;;;5052231;28;20123;-75
2021/04/15 00:16:16;;;;;;;9.20;7.63;;;8.30;98.80;;;;;;5052027;28;20458;-75
2021/04/15 00:18:42;;;;;;;9.15;8.25;;;8.40;98.60;;;;;;5053074;28;20029;-75
2021/04/15 00:21:10;;;;;;;10.13;8.63;;;8.40;98.50;;;;;;5053261;28;20060;-75
2021/04/15 00:23:36;;;;;;;10.10;7.40;;;8.40;98.50;;;;;;5053164;28;20063;-76
2021/04/15 00:26:03;;;;;;;8.95;8.05;;;8.40;98.50;;;;;;5064490;28;20051;-76
2021/04/15 00:28:29;;;;;;;10.75;9.20;;;8.40;98.40;;;;;;5062805;28;20082;-75
2021/04/15 00:30:55;;;;;;;10.02;8.98;;;8.40;98.50;;;;;;5051035;28;20111;-76
2021/04/15 00:33:21;;;;;;;10.25;7.90;;;8.50;98.80;;;;;;5052493;28;20079;-76
2021/04/15 00:35:48;;;;;;;10.32;8.00;;;8.50;98.60;;;;;;5050991;28;20063;-76
2021/04/15 00:38:15;;;;;;;9.00;7.65;;;8.50;98.30;;;;;;5070093;28;20467;-75
2021/04/15 00:40:43;;;;;;;10.98;8.05;;;8.50;98.50;;;;;;5071638;28;20086;-75
2021/04/15 00:43:08;;;;;;;9.57;8.60;;;8.60;97.90;;;;;;5070893;28;20410;-76
2021/04/15 00:45:38;;;;;;;9.63;8.38;;;8.50;98.20;;;;;;5071981;28;20021;-75
2021/04/15 00:48:03;;;;;;;9.25;8.07;;;8.60;97.90;;;;;;5070571;28;20061;-75
2021/04/15 00:50:57;;;;;;;9.35;8.18;;;8.60;97.90;;;;;;5070588;28;20574;-75
2021/04/15 00:53:44;;;;;;;11.52;8.75;;;8.70;98.00;;;;;;5069088;28;20040;-75
2021/04/15 00:56:11;;;;;;;9.23;7.68;;;8.70;98.00;;;;;;5070432;28;20040;-76
2021/04/15 00:58:39;;;;;;;11.07;8.38;;;8.60;97.20;;;;;;5071958;28;20031;-76
2021/04/15 01:01:05;;;;;;;8.48;7.65;;;8.60;97.00;;;;;;5070508;28;20036;-75
2021/04/15 01:03:33;;;;;;;8.77;7.80;;;8.60;96.80;;;;;;5072163;28;20478;-75
2021/04/15 01:05:59;;;;;;;10.02;8.15;;;8.60;96.90;;;;;;5071599;28;20432;-75
2021/04/15 01:08:25;;;;;;;9.43;8.45;;;8.70;97.10;;;;;;5070525;28;20409;-76
2021/04/15 01:11:06;;;;;;;9.25;7.05;;;8.70;97.00;;;;;;5070053;28;20020;-76
2021/04/15 01:13:32;;;;;;;11.38;8.23;;;8.60;96.80;;;;;;5071825;28;20066;-75
2021/04/15 01:16:03;;;;;;;8.68;7.72;;;8.50;97.20;;;;;;5069872;28;20056;-76
2021/04/15 01:18:48;;;;;;;10.82;7.90;;;8.40;97.00;;;;;;5071851;28;20502;-76
2021/04/15 01:21:22;;;;;;;8.02;7.22;;;8.50;96.80;;;;;;5071797;28;20577;-76
2021/04/15 01:24:20;;;;;;;10.57;7.13;;;8.40;96.90;;;;;;5046840;28;703164;-75
2021/04/15 01:27:26;;;;;;;8.35;7.55;;;8.40;97.00;;;;;;5044879;28;20033;-75
2021/04/15 01:30:34;;;;;;;8.98;7.70;;;8.30;97.20;;;;;;5050997;28;20044;-75
2021/04/15 01:33:23;;;;;;;7.60;6.90;;;8.40;97.00;;;;;;5039573;28;20025;-75
2021/04/15 01:36:02;;;;;;;8.10;7.30;;;8.40;97.10;;;;;;5069423;28;20383;-76
2021/04/15 01:38:33;;;;;;;10.93;6.40;;;8.30;97.30;;;;;;5072477;28;20085;-76
2021/04/15 01:41:15;;;;;;;8.93;7.65;;;8.30;97.50;;;;;;5070534;28;20031;-76
2021/04/15 01:44:09;;;;;;;6.95;6.22;;;8.30;97.10;;;;;;5072386;28;20017;-76
2021/04/15 01:46:38;;;;;;;7.45;6.65;;;8.30;96.80;;;;;;5072374;28;20082;-76
2021/04/15 01:49:07;;;;;;;7.22;5.82;;;8.30;96.50;;;;;;5070623;28;20587;-76
2021/04/15 01:51:48;;;;;;;6.40;5.80;;;8.30;96.30;;;;;;5072343;28;20024;-75
2021/04/15 01:55:00;;;;;;;6.50;5.90;;;8.20;96.10;;;;;;5071982;28;20063;-76
2021/04/15 01:57:41;;;;;;;7.45;6.63;;;8.20;96.90;;;;;;5062395;28;20036;-76
2021/04/15 02:00:17;;;;;;;7.80;6.97;;;8.10;96.80;;;;;;5071636;28;20016;-76
2021/04/15 02:02:47;;;;;;;7.78;6.53;;;8.00;96.70;;;;;;5072097;28;20033;-76
2021/04/15 02:05:17;;;;;;;7.40;6.45;;;8.00;96.70;;;;;;5071482;28;20028;-76
2021/04/15 02:07:58;;;;;;;8.20;6.82;;;7.90;97.10;;;;;;5070851;28;20486;-76
2021/04/15 02:10:25;;;;;;;8.20;7.35;;;7.90;97.50;;;;;;5070685;28;20021;-76
2021/04/15 02:12:53;;;;;;;10.80;8.00;;;7.80;97.50;;;;;;5070795;28;20029;-76
2021/04/15 02:15:28;;;;;;;10.15;6.68;;;7.70;97.70;;;;;;5071952;28;20052;-76
2021/04/15 02:18:02;;;;;;;7.82;7.03;;;7.70;97.90;;;;;;5072134;28;20025;-76
2021/04/15 02:20:29;;;;;;;7.78;6.97;;;7.70;98.10;;;;;;5071776;28;20085;-76
2021/04/15 02:23:09;;;;;;;9.45;7.55;;;7.60;98.00;;;;;;5074598;28;20036;-76
2021/04/15 02:25:54;;;;;;;10.95;8.27;;;7.70;98.10;;;;;;5075160;28;20037;-76
2021/04/15 02:28:33;;;;;;;11.18;8.15;;;7.60;97.80;;;;;;5067160;28;20478;-75
2021/04/15 02:31:17;;;;;;;8.88;7.75;;;7.60;97.80;;;;;;5055286;28;20062;-75
2021/04/15 02:33:54;;;;;;;8.05;7.28;;;7.60;97.70;;;;;;5055507;28;20032;-76
2021/04/15 02:36:24;;;;;;;9.30;7.70;;;7.70;97.70;;;;;;5055523;28;20094;-75
2021/04/15 02:38:57;;;;;;;9.40;7.68;;;7.70;97.50;;;;;;5053894;28;20434;-76
2021/04/15 02:41:35;;;;;;;12.35;8.15;;;7.80;97.20;;;;;;5054970;28;20029;-75
2021/04/15 02:44:17;;;;;;;10.77;7.25;;;7.80;97.20;;;;;;5055255;28;20361;-76
2021/04/15 02:46:48;;;;;;;9.20;7.20;;;7.70;97.10;;;;;;5053855;28;20032;-76
2021/04/15 02:49:17;;;;;;;10.45;8.32;;;7.80;97.40;;;;;;5055187;28;20021;-76
2021/04/15 02:51:58;;;;;;;10.40;7.18;;;7.80;96.90;;;;;;5053762;28;20048;-76
2021/04/15 02:54:31;;;;;;;10.03;7.77;;;7.80;97.00;;;;;;5053613;28;20028;-75
2021/04/15 02:56:59;;;;;;;9.30;7.05;;;7.80;96.70;;;;;;5053694;28;20294;-76
2021/04/15 02:59:30;;;;;;;12.43;8.48;;;7.80;96.10;;;;;;5054772;28;20032;-75
2021/04/15 03:02:15;;;;;;;9.45;6.70;;;7.80;96.10;;;;;;5057358;28;20025;-76
2021/04/15 03:04:45;;;;;;;8.82;7.55;;;7.80;95.40;;;;;;5053671;28;20017;-76
2021/04/15 03:07:12;;;;;;;9.32;7.32;;;7.80;96.10;;;;;;5067527;28;20521;-75
2021/04/15 03:09:42;;;;;;;7.60;6.85;;;7.70;95.40;;;;;;5073520;28;20021;-75
2021/04/15 03:12:22;;;;;;;10.55;8.00;;;7.80;95.60;;;;;;5074818;28;20024;-75
2021/04/15 03:14:57;;;;;;;13.90;7.70;;;7.80;95.30;;;;;;5073154;28;20039;-76
2021/04/15 03:17:24;;;;;;;10.45;6.72;;;7.80;94.30;;;;;;5074664;28;20036;-76
2021/04/15 03:19:56;;;;;;;7.95;6.60;;;7.70;94.00;;;;;;5073245;28;20030;-76
2021/04/15 03:22:27;;;;;;;;;;;7.80;93.60;;;;;;5075019;28;20048;-76
2021/04/15 03:24:56;;;;;;;9.85;6.68;;;7.80;93.30;;;;;;5074539;28;20366;-76
2021/04/15 03:27:43;;;;;;;8.57;6.40;;;7.80;92.90;;;;;;5075117;28;20103;-76
2021/04/15 03:30:19;;;;;;;10.48;6.07;;;7.70;92.90;;;;;;5060706;28;20024;-76
2021/04/15 03:33:21;;;;;;;8.77;6.93;;;7.80;92.60;;;;;;5073592;28;20486;-76
2021/04/15 03:35:59;;;;;;;9.13;6.47;;;7.80;94.30;;;;;;5052518;28;20123;-76
2021/04/15 03:38:32;;;;;;;8.38;6.20;;;7.80;94.20;;;;;;5052505;28;20025;-76
2021/04/15 03:41:12;;;;;;;9.23;6.47;;;7.80;93.10;;;;;;5053796;28;20032;-76
2021/04/15 03:44:01;;;;;;;6.68;5.82;;;7.80;92.40;;;;;;5060462;28;20078;-76
2021/04/15 03:46:52;;;;;;;8.15;5.97;;;7.70;91.80;;;;;;5050542;28;20079;-76
2021/04/15 03:49:23;;;;;;;9.70;7.05;;;7.80;92.40;;;;;;5052312;28;20037;-76
2021/04/15 03:51:56;;;;;;;9.25;5.88;;;7.70;93.30;;;;;;5053575;28;20025;-76
2021/04/15 03:54:27;;;;;;;6.93;5.53;;;7.70;92.60;;;;;;5053541;28;20053;-76
2021/04/15 03:56:57;;;;;;;6.90;5.32;;;7.80;92.00;;;;;;5053537;28;20126;-76
2021/04/15 03:59:37;;;;;;;8.25;5.35;;;7.80;91.60;;;;;;5052306;28;20109;-75
2021/04/15 04:02:11;;;;;;;10.20;5.90;;;7.80;90.90;;;;;;5051185;28;20047;-76
2021/04/15 04:04:50;;;;;;;11.63;6.03;;;7.80;90.60;;;;;;5063871;28;20089;-76
2021/04/15 04:07:24;;;;;;;7.68;5.28;;;7.80;90.50;;;;;;5071081;28;20028;-76
2021/04/15 04:10:22;;;;;;;6.20;4.93;;;7.70;90.60;;;;;;5071952;28;20024;-76
2021/04/15 04:13:21;;;;;;;9.10;5.88;;;7.70;90.90;;;;;;5073368;28;20082;-76
2021/04/15 04:16:07;;;;;;;6.82;5.32;;;7.80;90.60;;;;;;5068653;28;20486;-75
2021/04/15 04:19:04;;;;;;;8.88;5.50;;;7.70;90.40;;;;;;5072088;28;20115;-75
2021/04/15 04:22:10;;;;;;;5.28;4.75;;;7.70;90.70;;;;;;5073160;28;20028;-75
2021/04/15 04:24:56;;;;;;;7.40;5.40;;;7.70;90.50;;;;;;5030041;28;20056;-76
2021/04/15 04:27:42;;;;;;;8.10;5.75;;;7.70;90.20;;;;;;5067874;28;20090;-75
2021/04/15 04:30:24;;;;;;;9.73;5.45;;;7.80;90.50;;;;;;5078219;28;20383;-76
2021/04/15 04:32:57;;;;;;;12.73;6.05;;;7.80;90.50;;;;;;5070987;28;20016;-76
2021/04/15 04:35:29;;;;;;;12.75;5.70;;;7.80;90.10;;;;;;5071974;28;20050;-77
2021/04/15 04:38:03;;;;;;;7.45;5.40;;;7.80;89.60;;;;;;5070568;28;20103;-76
2021/04/15 04:40:37;;;;;;;8.65;4.63;;;7.80;90.20;;;;;;5072081;28;20041;-76
2021/04/15 04:43:18;;;;;;;6.57;4.82;;;7.90;90.20;;;;;;5072086;28;20024;-75
2021/04/15 04:45:47;;;;;;;8.52;5.50;;;7.90;90.00;;;;;;5072451;28;20035;-76
2021/04/15 04:48:19;;;;;;;8.93;5.90;;;7.90;89.20;;;;;;5064866;28;20044;-75
2021/04/15 04:50:51;;;;;;;6.10;4.82;;;7.90;89.70;;;;;;5053103;28;20021;-75
2021/04/15 04:53:26;;;;;;;8.55;5.32;;;7.80;88.50;;;;;;5069226;28;20035;-75
2021/04/15 04:56:16;;;;;;;7.85;5.90;;;7.90;90.00;;;;;;5071580;28;20021;-76
2021/04/15 04:59:07;;;;;;;16.13;6.07;;;7.80;89.30;;;;;;5072744;28;20035;-76
2021/04/15 05:01:34;;;;;;;8.45;5.60;;;7.80;89.00;;;;;;5061154;28;20094;-76
2021/04/15 05:04:02;;;;;;;6.50;5.72;;;7.80;89.90;;;;;;5071470;28;20103;-76
2021/04/15 05:06:34;;;;;;;8.85;5.88;;;7.80;90.10;;;;;;5071895;28;20029;-75
2021/04/15 05:09:08;;;;;;;6.97;5.18;;;7.90;90.20;;;;;;5072334;28;20028;-76
2021/04/15 05:11:46;;;;;;;12.00;5.53;;;7.90;90.50;;;;;;5072657;28;20108;-75
2021/04/15 05:14:15;;;;;;;9.50;5.68;;;7.90;90.30;;;;;;5072674;28;20071;-75
2021/04/15 05:17:20;;;;;;;8.63;6.30;;;7.90;90.20;;;;;;5072564;28;20035;-76
2021/04/15 05:19:46;;;;;;;6.65;5.45;;;7.90;89.90;;;;;;5071141;28;20442;-76
2021/04/15 05:22:27;;;;;;;7.15;5.82;;;7.90;90.10;;;;;;5071112;28;20059;-76
2021/04/15 05:25:01;;;;;;;8.38;5.55;;;7.90;90.00;;;;;;5071542;28;20102;-75
2021/04/15 05:27:28;;;;;;;9.18;5.82;;;7.90;90.20;;;;;;5070930;28;20029;-75
2021/04/15 05:30:12;;;;;;;10.40;6.65;;;7.90;90.20;;;;;;5051742;28;20025;-76
2021/04/15 05:32:39;;;;;;;10.02;5.88;;;8.00;90.40;;;;;;5051779;28;20033;-75
2021/04/15 05:35:05;;;;;;;8.80;5.90;;;7.90;90.10;;;;;;5051174;28;20422;-76
2021/04/15 05:37:31;;;;;;;10.95;5.97;;;8.00;90.50;;;;;;5072634;28;20637;-76
2021/04/15 05:39:57;;;;;;;7.07;5.53;;;8.00;90.30;;;;;;5070620;28;20020;-75
2021/04/15 05:43:04;;;;;;;8.93;6.80;;;8.10;90.20;;;;;;5072017;28;20024;-76
2021/04/15 05:45:31;;;;;;;10.35;7.50;;;8.00;90.60;;;;;;5049820;28;20029;-76
2021/04/15 05:48:07;;;;;;;7.88;5.75;;;8.10;90.80;;;;;;5064627;28;20040;-76
2021/04/15 05:50:37;;;;;;;9.15;6.32;;;8.10;90.30;;;;;;5070996;28;20090;-76
2021/04/15 05:53:18;;;;;;;8.32;6.00;;;8.20;89.70;;;;;;5072689;28;20026;-76
2021/04/15 05:56:26;;;;;;;10.65;6.85;;;8.30;90.30;;;;;;5072354;28;20024;-75
2021/04/15 05:58:55;;;;;;;10.90;6.75;;;8.30;90.10;;;;;;5072834;28;20064;-76
2021/04/15 06:01:46;;;;;;;11.13;7.57;;;8.40;89.50;;;;;;5076718;28;20031;-76
2021/04/15 06:04:51;;;;;;;11.32;7.22;;;8.50;90.50;;;;;;5074182;28;20020;-76
2021/04/15 06:07:22;;;;;;;14.32;8.55;;;8.60;90.90;;;;;;5075210;28;20020;-75
2021/04/15 06:09:49;;;;;;;10.45;7.22;;;8.60;90.20;;;;;;5074375;28;20032;-75
2021/04/15 06:12:36;;;;;;;13.77;9.00;;;8.70;90.90;;;;;;5075714;28;20119;-76
2021/04/15 06:15:17;;;;;;;9.98;7.65;;;8.80;90.70;;;;;;5074401;28;20040;-80
2021/04/15 06:17:50;;;;;;;10.80;8.05;;;8.80;90.20;;;;;;5075743;28;20028;-76
2021/04/15 06:20:31;;;;;;;10.00;7.47;;;8.90;89.70;;;;;;5075598;28;20024;-75
2021/04/15 06:23:06;;;;;;;10.10;6.90;;;8.90;90.00;;;;;;5075680;28;20107;-75
2021/04/15 06:25:42;;;;;;;13.35;8.30;;;9.00;90.50;;;;;;5075147;28;20048;-76
2021/04/15 06:28:11;;;;;;;9.52;7.38;;;9.00;89.30;;;;;;5075431;28;20025;-75
2021/04/15 06:30:47;;;;;;;9.20;7.50;;;9.00;88.30;;;;;;5074054;28;20060;-76
2021/04/15 06:33:17;;;;;;;10.60;7.03;;;9.10;88.90;;;;;;5074016;28;20059;-76
2021/04/15 06:35:50;;;;;;;9.50;5.95;;;9.10;88.00;;;;;;5074525;28;20016;-75
2021/04/15 06:38:24;;;;;;;8.38;6.80;;;9.20;87.80;;;;;;5073231;28;20016;-75
2021/04/15 06:40:59;;;;;;;6.00;5.40;;;9.20;88.40;;;;;;5074850;28;20025;-75
2021/04/15 06:43:37;;;;;;;6.25;5.55;;;9.30;87.20;;;;;;5073449;28;20040;-76
2021/04/15 06:46:29;;;;;;;8.70;5.22;;;9.40;85.70;;;;;;5075294;28;20062;-76
2021/04/15 06:49:19;;;;;;;5.65;4.93;;;9.40;86.00;;;;;;5064768;28;20032;-76
2021/04/15 06:51:53;;;;;;;4.63;4.22;;;9.50;86.20;;;;;;5073410;28;20039;-76
2021/04/15 06:54:33;;;;;;;7.75;4.90;;;9.50;86.60;;;;;;5074249;28;20094;-75
2021/04/15 06:57:36;;;;;;;4.97;4.32;;;9.60;85.30;;;;;;5073582;28;20052;-75
2021/04/15 07:00:29;;;;;;;5.55;5.00;;;9.60;85.80;;;;;;5066239;28;20437;-76
2021/04/15 07:03:10;;;;;;;8.18;4.53;;;9.60;86.10;;;;;;5071434;28;20039;-76
2021/04/15 07:05:41;;;;;;;4.78;4.25;;;9.60;86.90;;;;;;5077358;28;20024;-76
2021/04/15 07:08:33;;;;;;;5.72;4.93;;;9.60;85.50;;;;;;5066178;28;20024;-78
2021/04/15 07:11:12;;;;;;;5.13;4.40;;;9.60;85.70;;;;;;5065107;28;20028;-78
2021/04/15 07:14:15;;;;;;;5.15;4.65;;;9.60;83.70;;;;;;5072720;28;20059;-76
2021/04/15 07:17:25;;;;;;;6.28;4.93;;;9.60;85.00;;;;;;5073433;28;20512;-76
2021/04/15 07:20:09;;;;;;;5.90;4.28;;;9.70;86.00;;;;;;5032559;28;20103;-78
2021/04/15 07:22:49;;;;;;;4.93;4.43;;;9.70;87.20;;;;;;5054095;28;20040;-79
2021/04/15 07:25:15;;;;;;;4.90;3.63;;;9.70;85.00;;;;;;5054518;28;20102;-78
2021/04/15 07:27:48;;;;;;;5.35;4.05;;;9.80;87.00;;;;;;5074302;28;20024;-78
2021/04/15 07:30:26;;;;;;;4.43;4.03;;;9.80;86.60;;;;;;5073171;28;20024;-78
2021/04/15 07:33:03;;;;;;;5.88;3.80;;;9.80;87.30;;;;;;5074265;28;20060;-78
2021/04/15 07:35:53;;;;;;;4.43;3.97;;;9.90;88.40;;;;;;5054343;28;20091;-78
2021/04/15 07:38:21;;;;;;;3.53;3.33;;;9.90;86.60;;;;;;5071915;28;20027;-78
2021/04/15 07:41:22;;;;;;;4.32;3.92;;;10.00;86.90;;;;;;5072689;28;20028;-79
2021/04/15 07:43:57;;;;;;;5.10;3.70;;;9.90;85.90;;;;;;5071030;28;20044;-80
2021/04/15 07:46:29;;;;;;;4.32;3.92;;;9.90;86.90;;;;;;5072907;28;20032;-76
2021/04/15 07:49:25;;;;;;;4.47;3.80;;;10.00;87.50;;;;;;5073016;28;20028;-76
2021/04/15 07:52:11;;;;;;;6.53;4.35;;;10.10;86.40;;;;;;5074287;28;20158;-76
2021/04/15 07:54:52;;;;;;;3.90;3.53;;;10.20;87.30;;;;;;5074098;28;20017;-76
2021/04/15 07:57:48;;;;;;;3.22;3.03;;;10.10;84.20;;;;;;5073831;28;20028;-76
2021/04/15 08:00:41;;;;;;;5.28;2.83;;;10.20;87.70;;;;;;5053858;28;20491;-76
2021/04/15 08:03:32;;;;;;;3.55;3.25;;;10.10;85.00;;;;;;5062300;28;20032;-76
2021/04/15 08:06:32;;;;;;;3.13;2.85;;;10.10;85.50;;;;;;5074049;28;20107;-76
2021/04/15 08:09:46;;;;;;;3.13;2.85;;;10.10;84.60;;;;;;5049413;28;20033;-76
2021/04/15 08:12:57;;;;;;;2.97;2.72;;;10.10;85.50;;;;;;5073831;28;20029;-77
2021/04/15 08:15:32;;;;;;;4.15;2.35;;;10.10;86.40;;;;;;5073828;28;20475;-77
2021/04/15 08:18:45;;;;;;;2.35;2.10;;;10.10;83.10;;;;;;5083076;28;20028;-76
2021/04/15 08:21:20;;;;;;;;;;;10.20;83.30;;;;;;5051873;28;20048;-76
2021/04/15 08:24:13;;;;;;;2.50;2.05;;;10.20;83.70;;;;;;5053504;28;19904;-76
2021/04/15 08:27:24;;;;;;;2.33;2.10;;;10.30;84.10;;;;;;5052177;28;20037;-76
2021/04/15 08:30:22;;;;;;;2.42;2.20;;;10.40;82.90;;;;;;5031281;28;20029;-76
2021/04/15 08:33:11;;;;;;;3.45;2.35;;;10.40;82.60;;;;;;5053417;28;20375;-76
2021/04/15 08:36:12;;;;;;;2.33;2.10;;;10.50;82.30;;;;;;5053594;28;20064;-77
2021/04/15 08:38:41;;;;;;;3.78;3.38;;;10.60;81.50;;;;;;5052181;28;20494;-76
2021/04/15 08:41:30;;;;;;;3.60;2.08;;;10.60;81.80;;;;;;5051881;28;20037;-77
2021/04/15 08:44:18;;;;;;;3.00;2.22;;;10.60;82.50;;;;;;5052043;28;20067;-77
2021/04/15 08:47:15;;;;;;;3.28;2.45;;;10.70;83.20;;;;;;5053199;28;20025;-77
2021/04/15 08:49:46;;;;;;;2.03;1.85;;;10.80;81.00;;;;;;5053134;28;20049;-77
2021/04/15 08:52:25;;;;;;;4.38;1.77;;;10.90;81.20;;;;;;5053193;28;20075;-76
2021/04/15 08:55:25;;;;;;;1.70;1.60;;;10.90;78.90;;;;;;5053205;28;20036;-77
2021/04/15 08:58:18;;;;;;;1.73;1.63;;;11.00;77.30;;;;;;5057351;28;20031;-77
2021/04/15 09:01:12;;;;;;;2.00;1.80;;;11.10;80.20;;;;;;5071746;28;20032;-76
2021/04/15 09:03:48;;;;;;;1.75;1.65;;;11.20;77.80;;;;;;5072972;28;20375;-77
2021/04/15 09:06:20;;;;;;;1.90;1.70;;;11.30;75.40;;;;;;5072881;28;20029;-76
2021/04/15 09:09:20;;;;;;;1.60;1.50;;;11.30;75.30;;;;;;5071594;28;20033;-76
2021/04/15 09:12:18;;;;;;;2.85;1.60;;;11.40;76.30;;;;;;5072814;28;20048;-76
2021/04/15 09:14:56;;;;;;;5.20;1.60;;;11.40;74.90;;;;;;5072981;28;20020;-76
2021/04/15 09:17:40;;;;;;;1.92;1.77;;;11.50;77.70;;;;;;5072895;28;20382;-76
2021/04/15 09:20:32;;;;;;;2.15;2.05;;;11.50;75.00;;;;;;5071527;28;20116;-77
2021/04/15 09:23:07;;;;;;;4.32;3.08;;;11.50;74.50;;;;;;5071390;28;20036;-76
2021/04/15 09:25:53;;;;;;;2.60;2.40;;;11.40;76.10;;;;;;5071296;28;20056;-77
2021/04/15 09:28:47;;;;;;;2.97;2.72;;;11.20;76.60;;;;;;5062864;28;20053;-77
2021/04/15 09:31:19;;;;;;;2.53;2.33;;;11.30;80.10;;;;;;5052662;28;20479;-77
2021/04/15 09:33:59;;;;;;;5.97;2.90;;;11.30;80.40;;;;;;5066804;28;20025;-77
2021/04/15 09:36:43;;;;;;;3.28;2.85;;;11.10;81.50;;;;;;5077023;28;20025;-77
2021/04/15 09:39:31;;;;;;;3.88;3.35;;;11.00;84.30;;;;;;5075278;28;20055;-77
2021/04/15 09:42:19;;;;;;;3.97;2.90;;;10.70;87.40;;;;;;5076659;28;20397;-77
2021/04/15 09:45:09;;;;;;;3.40;3.10;;;10.70;90.00;;;;;;5075368;28;20029;-77
2021/04/15 09:48:13;;;;;;;4.53;3.80;;;10.40;90.10;;;;;;5075228;28;20497;-77
2021/04/15 09:50:53;;;;;;;4.18;2.70;;;10.50;91.30;;;;;;5076450;28;20528;-77
2021/04/15 09:53:50;;;;;;;4.95;3.30;;;10.30;92.40;;;;;;5076399;28;20074;-76
2021/04/15 09:56:40;;;;;;;4.43;3.55;;;10.20;92.90;;;;;;5076579;28;20017;-77
2021/04/15 09:59:21;;;;;;;3.58;3.30;;;10.20;93.00;;;;;;5076202;28;20067;-76
2021/04/15 10:02:01;;;;;;;3.65;3.40;;;10.20;93.90;;;;;;5076281;28;20107;-77
2021/04/15 10:04:32;;;;;;;3.05;2.75;;;10.00;94.20;;;;;;5071599;28;20025;-77
2021/04/15 10:07:05;;;;;;;5.20;3.15;;;10.00;94.70;;;;;;5055056;28;20060;-77
2021/04/15 10:09:55;;;;;;;3.08;2.78;;;10.10;95.20;;;;;;5055817;28;20103;-77
2021/04/15 10:12:57;;;;;;;4.35;3.08;;;10.00;94.20;;;;;;5056001;28;20029;-77
2021/04/15 10:15:42;;;;;;;3.63;3.15;;;9.90;94.80;;;;;;5056100;28;20023;-77
2021/04/15 10:18:12;;;;;;;3.42;2.72;;;10.00;95.10;;;;;;5054892;28;20394;-77
2021/04/15 10:21:05;;;;;;;2.90;2.70;;;9.70;94.10;;;;;;5054680;28;20033;-77
2021/04/15 10:23:53;;;;;;;2.17;2.08;;;9.70;94.40;;;;;;5055878;28;20024;-77
2021/04/15 10:26:27;;;;;;;2.40;2.20;;;9.70;93.80;;;;;;5068184;28;20033;-77
2021/04/15 10:28:55;;;;;;;2.20;2.10;;;9.90;94.30;;;;;;5061445;28;20055;-77
2021/04/15 10:31:40;;;;;;;1.70;1.60;;;10.10;93.80;;;;;;5055664;28;20483;-77
2021/04/15 10:34:43;;;;;;;2.47;1.77;;;10.20;93.50;;;;;;5054279;28;20037;-76
2021/04/15 10:37:38;;;;;;;1.85;1.75;;;10.20;92.70;;;;;;5071351;28;20089;-77
2021/04/15 10:40:36;;;;;;;2.55;1.80;;;10.20;92.10;;;;;;5080246;28;20035;-76
2021/04/15 10:43:38;;;;;;;1.65;1.55;;;10.30;92.80;;;;;;5081499;28;20024;-77
2021/04/15 10:46:34;;;;;;;2.95;1.70;;;10.20;91.80;;;;;;5094516;28;20085;-76
2021/04/15 10:49:21;;;;;;;3.03;1.67;;;10.30;91.70;;;;;;5094461;28;20051;-76
2021/04/15 10:52:10;;;;;;;2.08;1.98;;;10.30;91.80;;;;;;5095623;28;20081;-76
2021/04/15 10:54:41;;;;;;;3.58;1.80;;;10.50;91.50;;;;;;5075804;28;20036;-76
2021/04/15 10:57:26;;;;;;;2.67;1.40;;;10.50;90.30;;;;;;5094167;28;20116;-77
2021/04/15 10:59:52;;;;;;;4.35;2.13;;;10.70;91.70;;;;;;5053821;28;20048;-77
2021/04/15 11:02:23;;;;;;;1.90;1.77;;;10.80;91.50;;;;;;5056620;28;20017;-77
2021/04/15 11:04:50;;;;;;;2.20;1.92;;;10.80;90.90;;;;;;5075159;28;20020;-78
2021/04/15 11:07:34;;;;;;;4.50;1.50;;;10.80;90.10;;;;;;5075102;28;20101;-77
2021/04/15 11:10:09;;;;;;;2.33;2.08;;;11.00;90.20;;;;;;5074915;28;20499;-77
2021/04/15 11:12:35;;;;;;;1.80;1.70;;;11.20;90.40;;;;;;5091967;28;20062;-77
2021/04/15 11:15:28;;;;;;;2.75;2.53;;;11.40;90.30;;;;;;5080891;28;20048;-77
2021/04/15 11:17:54;;;;;;;2.50;2.30;;;11.60;86.90;;;;;;5070552;28;20029;-77
2021/04/15 11:20:23;;;;;;;2.05;1.90;;;11.70;86.60;;;;;;5073908;28;20112;-77
2021/04/15 11:23:03;;;;;;;1.60;1.50;;;11.90;86.40;;;;;;5074672;28;20440;-77
2021/04/15 11:25:43;;;;;;;1.67;1.52;;;11.90;85.90;;;;;;5074475;28;20048;-77
2021/04/15 11:28:18;;;;;;;5.53;3.03;;;12.10;87.70;;;;;;5074244;28;20032;-77
2021/04/15 11:31:17;;;;;;;2.13;1.40;;;12.30;84.60;;;;;;5074884;28;20025;-77
2021/04/15 11:33:48;;;;;;;1.17;1.17;;;12.30;73.50;;;;;;5069054;28;20513;-77
2021/04/15 11:36:14;;;;;;;2.45;1.67;;;12.50;74.70;;;;;;5073208;28;20021;-77
2021/04/15 11:38:41;;;;;;;1.35;1.30;;;12.70;77.10;;;;;;5076887;28;20028;-77
2021/04/15 11:41:24;;;;;;;2.20;1.75;;;12.90;79.10;;;;;;5079652;28;20117;-77
2021/04/15 11:44:07;;;;;;;1.85;1.75;;;12.90;77.20;;;;;;5074268;28;20073;-77
2021/04/15 11:46:47;;;;;;;1.20;1.20;;;13.10;74.50;;;;;;5075567;28;20541;-77
2021/04/15 11:49:25;;;;;;;2.85;1.25;;;12.80;68.60;;;;;;5094529;28;20020;-77
2021/04/15 11:52:15;;;;;;;3.55;1.80;;;12.90;71.30;;;;;;5094403;28;20035;-77
2021/04/15 11:54:43;;;;;;;1.20;1.20;;;12.80;71.90;;;;;;5074371;28;20025;-77
2021/04/15 11:57:18;;;;;;;3.08;1.80;;;13.10;68.80;;;;;;5073732;28;20111;-77
2021/04/15 12:00:01;;;;;;;1.90;1.58;;;13.40;72.10;;;;;;5072582;28;20037;-76
2021/04/15 12:02:33;;;;;;;1.70;1.60;;;13.50;69.20;;;;;;5072467;28;20391;-77
2021/04/15 12:05:10;;;;;;;1.80;1.70;;;13.50;66.90;;;;;;5073756;28;20024;-76
2021/04/15 12:07:37;;;;;;;1.30;1.30;;;13.60;67.80;;;;;;5072565;28;20032;-77
2021/04/15 12:10:05;;;;;;;2.03;1.63;;;13.70;66.00;;;;;;5073723;28;20021;-76
2021/04/15 12:12:37;;;;;;;1.20;1.10;;;13.60;64.70;;;;;;5072477;28;20074;-76
2021/04/15 12:15:06;;;;;;;1.55;1.45;;;13.90;66.50;;;;;;5073663;28;20379;-77
2021/04/15 12:17:51;;;;;;;1.58;1.48;;;14.20;66.30;;;;;;5073566;28;20398;-77
2021/04/15 12:20:26;;;;;;;2.40;1.48;;;14.30;61.10;;;;;;5073095;28;20035;-77
2021/04/15 12:23:13;;;;;;;1.67;1.55;;;14.20;59.30;;;;;;5073474;28;20108;-76
2021/04/15 12:25:50;;;;;;;1.27;1.20;;;14.50;59.50;;;;;;5073370;28;20097;-76
2021/04/15 12:29:07;;;;;;;3.13;1.42;;;14.30;56.40;;;;;;5072172;28;20021;-76
2021/04/15 12:31:46;;;;;;;1.42;1.30;;;14.40;58.30;;;;;;5060081;28;20036;-75
2021/04/15 12:34:39;;;;;;;1.38;1.27;;;14.60;58.50;;;;;;5072941;28;20031;-75
2021/04/15 12:37:13;;;;;;;;;;;14.70;58.20;;;;;;5072144;28;20028;-75
2021/04/15 12:39:54;;;;;;;1.67;1.58;;;14.90;60.10;;;;;;5072893;28;20354;-75
2021/04/15 12:42:25;;;;;;;1.92;1.50;;;15.00;59.40;;;;;;5072867;28;20028;-75
2021/04/15 12:44:55;;;;;;;2.78;1.65;;;15.00;57.80;;;;;;5072864;28;20027;-74
2021/04/15 12:47:22;;;;;;;3.75;1.83;;;14.80;56.10;;;;;;5072956;28;20025;-74
2021/04/15 12:49:48;;;;;;;2.22;1.70;;;14.80;60.10;;;;;;5072789;28;20028;-75
2021/04/15 12:52:14;;;;;;;2.20;1.90;;;14.80;59.80;;;;;;5073060;28;20028;-74
2021/04/15 12:54:43;;;;;;;1.35;1.25;;;14.90;61.30;;;;;;5072823;28;20490;-75
2021/04/15 12:57:13;;;;;;;1.80;1.70;;;15.00;59.30;;;;;;5071514;28;20086;-75
2021/04/15 12:59:47;;;;;;;1.77;1.50;;;15.00;58.70;;;;;;5089079;28;20115;-74
2021/04/15 13:02:27;;;;;;;4.00;1.58;;;15.10;59.50;;;;;;5090608;28;20032;-74
2021/04/15 13:04:58;;;;;;;1.88;1.77;;;15.30;60.90;;;;;;5072724;28;20021;-76
2021/04/15 13:07:24;;;;;;;3.60;1.60;;;15.40;60.20;;;;;;5072520;28;20029;-75
2021/04/15 13:10:12;;;;;;;2.10;1.52;;;15.50;59.00;;;;;;5072765;28;20034;-74
2021/04/15 13:12:39;;;;;;;1.73;1.63;;;15.40;57.90;;;;;;5071170;28;20550;-75
2021/04/15 13:15:22;;;;;;;1.60;1.38;;;15.20;56.50;;;;;;5073460;28;20020;-74
2021/04/15 13:17:57;;;;;;;1.95;1.58;;;15.20;57.30;;;;;;5073132;28;20048;-75
2021/04/15 13:20:22;;;;;;;2.28;2.08;;;15.40;57.50;;;;;;5071808;28;20378;-75
2021/04/15 13:23:09;;;;;;;2.90;1.60;;;15.60;56.20;;;;;;5074749;28;20115;-75
2021/04/15 13:25:52;;;;;;;1.60;1.50;;;15.60;55.10;;;;;;5072284;28;20051;-75
2021/04/15 13:28:47;;;;;;;2.80;1.55;;;15.30;54.40;;;;;;5072383;28;20025;-75
2021/04/15 13:31:44;;;;;;;1.52;1.42;;;14.90;52.10;;;;;;5072377;28;20032;-74
2021/04/15 13:34:13;;;;;;;1.40;1.10;;;14.60;53.00;;;;;;5071930;28;20122;-75
2021/04/15 13:36:41;;;;;;;1.70;1.38;;;14.40;52.00;;;;;;5071859;28;20020;-74
2021/04/15 13:39:32;;;;;;;8.25;1.58;;;14.30;51.80;;;;;;5070736;28;20017;-75
2021/04/15 13:42:02;;;;;;;1.30;1.20;;;14.60;51.80;;;;;;5071909;28;20512;-74
2021/04/15 13:44:58;;;;;;;2.63;2.28;;;15.00;53.90;;;;;;5071922;28;20021;-75
2021/04/15 13:47:46;;;;;;;2.42;2.22;;;15.30;54.50;;;;;;5071825;28;20044;-75
2021/04/15 13:50:14;;;;;;;3.20;2.08;;;15.40;54.30;;;;;;5071729;28;20023;-75
2021/04/15 13:52:40;;;;;;;2.58;2.38;;;15.60;55.40;;;;;;5071692;28;20021;-75
2021/04/15 13:55:27;;;;;;;4.53;2.58;;;15.60;54.20;;;;;;5070569;28;20027;-75
2021/04/15 13:57:53;;;;;;;4.78;3.35;;;15.40;54.70;;;;;;5071665;28;20028;-75